ROMMA est une association bénévole à but non lucratif. Votre soutien est indispensable : ADHERER à ROMMA ou FAIRE un DON

St-Christophe/Guiers - Berland - (38, Isère)

Massif de la Chartreuse (533 m)   Longitude: 05° 46' 44" E   Latitude: 45° 25' 43" N Station partenaire n°32
 

Détail journalier du     <<     >>

Température Precipitation Humidité Pression Vent Dir Rafale Dir. rafale Ensol.
Heure (°C) (mm) (%) (hPa) (km/h) (km/h) (min)
01:00 1.408010183ENE6ENE0
02:00 0.708210182ENE5ENE0
03:00 0.108410183ENE6ENE0
04:00 -0.408610181---5ENE0
05:00 -0.908610172ENE6NO0
06:00 -0.308710182NO5NO0
07:00 -0.7087101805ESE0
08:00 -1.108910181ESE6SSO0
09:00 0.108610182SSO8SO30
10:00 1.608110185SSO11S60
11:00 3.107610186SO16SO60
12:00 4.207310187O15O60
13:00 5.806710186O18OSO50
14:00 7.106010189OSO27ONO50
15:00 7.805210188O23ONO40
16:00 8.5053101810O27O60
17:00 8.805410179OSO26O60
18:00 9.0054101811O24O60
19:00 7.905510189OSO29ONO60
20:00 6.406010207O21OSO30
21:00 4.906710202SSO8SO0
22:00 3.307410202---15ENE0
23:00 3.607310204ENE15ENE0
minuit 4.007310217NE24E0

Graphique du 14-04-2019

 

Serveur OMMA